Time;durP1;ratioP1;P1;durP2;ratioP2;P2;SDS_P1;SDS_P2;PMS_P1;PMS_P2;Temp;Humidity;BMP_temperature;BMP_pressure;BME280_temperature;BME280_humidity;BME280_pressure;Samples;Min_cycle;Max_cycle;Signal;HPM_P1;HPM_P2
2022/02/18 00:00:27;;;;;;;6.83;2.07;;;;;;;;;;4904566;29;20270;-72
2022/02/18 00:02:55;;;;;;;9.93;2.57;;;;;;;;;;4932891;29;20231;-72
2022/02/18 00:05:22;;;;;;;9.50;2.30;;;;;;;;;;4921425;28;20227;-72
2022/02/18 00:07:47;;;;;;;11.23;2.73;;;;;;;;;;4906843;29;20705;-72
2022/02/18 00:10:15;;;;;;;10.73;2.50;;;;;;;;;;4916945;29;20232;-73
2022/02/18 00:12:48;;;;;;;11.20;2.40;;;;;;;;;;4897240;29;20231;-72
2022/02/18 00:15:18;;;;;;;7.33;2.00;;;;;;;;;;4923261;29;20834;-72
2022/02/18 00:17:47;;;;;;;10.53;2.40;;;;;;;;;;4929444;29;20238;-73
2022/02/18 00:20:12;;;;;;;9.53;1.97;;;;;;;;;;4919729;28;20287;-73
2022/02/18 00:22:37;;;;;;;11.53;2.70;;;;;;;;;;4911580;29;20306;-73
2022/02/18 00:25:05;;;;;;;8.23;2.30;;;;;;;;;;4909002;29;20232;-73
2022/02/18 00:27:35;;;;;;;10.23;2.00;;;;;;;;;;4910383;29;20232;-73
2022/02/18 00:30:02;;;;;;;10.30;2.20;;;;;;;;;;4936103;29;20231;-72
2022/02/18 00:32:27;;;;;;;8.67;2.20;;;;;;;;;;4911356;29;20599;-73
2022/02/18 00:34:56;;;;;;;9.57;2.20;;;;;;;;;;4932721;29;20232;-72
2022/02/18 00:37:25;;;;;;;12.30;2.30;;;;;;;;;;4908128;28;20228;-72
2022/02/18 00:39:51;;;;;;;10.33;2.33;;;;;;;;;;4920210;29;20250;-74
2022/02/18 00:42:16;;;;;;;6.53;2.20;;;;;;;;;;4945319;28;20701;-72
2022/02/18 00:44:44;;;;;;;9.03;2.27;;;;;;;;;;4916888;29;20974;-72
2022/02/18 00:47:15;;;;;;;7.57;2.50;;;;;;;;;;4936304;28;20211;-72
2022/02/18 00:49:44;;;;;;;9.40;2.20;;;;;;;;;;4931025;28;20228;-72
2022/02/18 00:52:15;;;;;;;5.70;1.80;;;;;;;;;;4886506;29;20220;-73
2022/02/18 00:54:41;;;;;;;7.93;2.10;;;;;;;;;;4934485;29;20363;-72
2022/02/18 00:57:11;;;;;;;8.93;2.03;;;;;;;;;;4902220;28;20251;-72
2022/02/18 00:59:39;;;;;;;8.87;2.37;;;;;;;;;;4919993;29;20234;-73
2022/02/18 01:02:07;;;;;;;8.37;2.07;;;;;;;;;;4934806;28;20228;-73
2022/02/18 01:04:33;;;;;;;7.20;1.60;;;;;;;;;;4910115;29;20255;-72
2022/02/18 01:06:59;;;;;;;7.50;2.27;;;;;;;;;;4915255;29;20248;-72
2022/02/18 01:09:24;;;;;;;7.60;2.10;;;;;;;;;;4936158;28;20231;-72
2022/02/18 01:11:50;;;;;;;12.47;2.37;;;;;;;;;;4918917;29;20224;-73
2022/02/18 01:14:15;;;;;;;7.13;2.00;;;;;;;;;;4901591;29;20725;-73
2022/02/18 01:16:43;;;;;;;8.97;2.10;;;;;;;;;;4884463;29;20242;-72
2022/02/18 01:19:09;;;;;;;8.90;1.87;;;;;;;;;;4947041;28;20231;-73
2022/02/18 01:21:35;;;;;;;7.90;1.90;;;;;;;;;;4890632;29;20220;-73
2022/02/18 01:24:05;;;;;;;8.10;2.40;;;;;;;;;;4891992;29;20280;-72
2022/02/18 01:26:37;;;;;;;5.47;1.60;;;;;;;;;;4897047;29;20248;-73
2022/02/18 01:29:07;;;;;;;5.53;1.83;;;;;;;;;;4901832;29;20231;-72
2022/02/18 01:31:37;;;;;;;9.90;2.00;;;;;;;;;;4908484;29;20224;-75
2022/02/18 01:34:05;;;;;;;6.77;2.20;;;;;;;;;;4902912;28;20239;-72
2022/02/18 01:36:30;;;;;;;7.83;2.07;;;;;;;;;;4907352;29;20311;-72
2022/02/18 01:38:56;;;;;;;10.23;1.90;;;;;;;;;;4935369;28;20283;-73
2022/02/18 01:41:22;;;;;;;7.97;1.70;;;;;;;;;;4915550;29;20646;-73
2022/02/18 01:43:51;;;;;;;7.27;1.97;;;;;;;;;;4915341;29;20735;-73
2022/02/18 01:46:17;;;;;;;5.87;1.90;;;;;;;;;;4899701;29;20235;-73
2022/02/18 01:48:43;;;;;;;6.83;1.90;;;;;;;;;;4928975;29;20228;-73
2022/02/18 01:51:12;;;;;;;7.70;1.97;;;;;;;;;;4883774;29;20231;-73
2022/02/18 01:53:42;;;;;;;6.80;2.10;;;;;;;;;;4876690;29;20224;-73
2022/02/18 01:56:07;;;;;;;8.93;2.17;;;;;;;;;;4902685;28;20228;-73
2022/02/18 01:58:34;;;;;;;6.97;2.00;;;;;;;;;;4928857;29;20323;-73
2022/02/18 02:01:02;;;;;;;6.87;2.60;;;;;;;;;;4899671;29;20278;-73
2022/02/18 02:03:30;;;;;;;7.87;2.03;;;;;;;;;;4919088;29;20232;-73
2022/02/18 02:05:56;;;;;;;9.47;2.00;;;;;;;;;;4933934;29;20274;-73
2022/02/18 02:08:24;;;;;;;8.23;2.30;;;;;;;;;;4898634;29;20228;-73
2022/02/18 02:10:51;;;;;;;7.57;2.10;;;;;;;;;;4914841;29;20231;-73
2022/02/18 02:13:37;;;;;;;5.20;1.63;;;;;;;;;;4915892;29;20906;-74
2022/02/18 02:16:15;;;;;;;7.50;2.13;;;;;;;;;;4949235;28;20235;-72
2022/02/18 02:18:41;;;;;;;6.50;2.27;;;;;;;;;;4913758;29;20314;-72
2022/02/18 02:21:10;;;;;;;9.17;2.30;;;;;;;;;;4898850;29;20234;-72
2022/02/18 02:23:42;;;;;;;11.90;2.23;;;;;;;;;;4902207;29;20263;-72
2022/02/18 02:26:12;;;;;;;9.67;2.03;;;;;;;;;;4934322;28;20291;-73
2022/02/18 02:28:44;;;;;;;9.50;2.23;;;;;;;;;;4915879;29;20216;-73
2022/02/18 02:31:13;;;;;;;6.93;2.07;;;;;;;;;;4930064;29;20802;-72
2022/02/18 02:33:41;;;;;;;8.80;2.20;;;;;;;;;;4932380;29;20224;-73
2022/02/18 02:36:07;;;;;;;8.93;2.03;;;;;;;;;;4926352;28;20223;-72
2022/02/18 02:38:33;;;;;;;11.53;2.10;;;;;;;;;;4924637;29;20583;-72
2022/02/18 02:40:59;;;;;;;8.80;2.57;;;;;;;;;;4917379;29;20226;-72
2022/02/18 02:43:29;;;;;;;7.13;2.27;;;;;;;;;;4917600;29;20235;-72
2022/02/18 02:45:56;;;;;;;8.60;2.30;;;;;;;;;;4899029;29;20231;-73
2022/02/18 02:48:24;;;;;;;7.20;1.90;;;;;;;;;;4898945;29;20239;-72
2022/02/18 02:50:50;;;;;;;7.23;2.00;;;;;;;;;;4917395;29;20314;-73
2022/02/18 02:53:20;;;;;;;8.43;2.17;;;;;;;;;;4898342;29;20710;-73
2022/02/18 02:55:48;;;;;;;8.53;2.50;;;;;;;;;;4902097;29;20228;-72
2022/02/18 02:58:17;;;;;;;10.10;2.07;;;;;;;;;;4929812;29;20244;-73
2022/02/18 03:00:46;;;;;;;5.80;1.80;;;;;;;;;;4944758;28;20765;-73
2022/02/18 03:03:28;;;;;;;8.37;2.60;;;;;;;;;;4916384;28;20641;-72
2022/02/18 03:05:58;;;;;;;6.67;2.33;;;;;;;;;;4917198;29;20235;-72
2022/02/18 03:08:26;;;;;;;5.27;1.80;;;;;;;;;;4897963;29;20240;-72
2022/02/18 03:13:49;;;;;;;10.67;2.57;;;;;;;;;;4935378;28;20625;-72
2022/02/18 03:16:16;;;;;;;9.30;2.30;;;;;;;;;;4884196;29;20227;-72
2022/02/18 03:18:43;;;;;;;8.43;2.50;;;;;;;;;;4882923;29;20212;-72
2022/02/18 03:21:13;;;;;;;12.03;2.80;;;;;;;;;;4897417;28;20223;-72
2022/02/18 03:23:39;;;;;;;9.93;2.10;;;;;;;;;;4917007;29;20268;-74
2022/02/18 03:26:07;;;;;;;10.83;2.70;;;;;;;;;;4927325;29;20690;-73
2022/02/18 03:28:38;;;;;;;10.23;2.63;;;;;;;;;;4928989;29;20626;-73
2022/02/18 03:31:19;;;;;;;10.80;2.77;;;;;;;;;;4915710;28;20226;-74
2022/02/18 03:33:45;;;;;;;11.23;2.90;;;;;;;;;;4931762;29;20242;-72
2022/02/18 03:36:16;;;;;;;15.73;3.20;;;;;;;;;;4887163;29;20596;-73
2022/02/18 03:38:44;;;;;;;12.53;3.23;;;;;;;;;;4897311;29;20748;-72
2022/02/18 03:41:12;;;;;;;9.00;3.03;;;;;;;;;;4894697;28;20231;-72
2022/02/18 03:43:40;;;;;;;14.17;3.07;;;;;;;;;;4892580;29;20733;-72
2022/02/18 03:46:38;;;;;;;9.20;3.70;;;;;;;;;;4912940;29;20231;-73
2022/02/18 03:49:07;;;;;;;10.70;3.60;;;;;;;;;;4916814;28;20234;-73
2022/02/18 03:51:32;;;;;;;8.30;3.73;;;;;;;;;;4917421;29;20311;-72
2022/02/18 03:54:08;;;;;;;11.37;3.50;;;;;;;;;;4913010;29;20259;-73
2022/02/18 03:56:40;;;;;;;9.43;3.63;;;;;;;;;;4911976;29;20251;-72
2022/02/18 03:59:08;;;;;;;9.33;3.43;;;;;;;;;;4948007;28;20605;-73
2022/02/18 04:01:39;;;;;;;13.77;3.93;;;;;;;;;;4887596;29;20283;-72
2022/02/18 04:04:13;;;;;;;12.23;4.23;;;;;;;;;;4913352;29;20752;-72
2022/02/18 04:06:48;;;;;;;12.77;4.07;;;;;;;;;;4912131;29;20247;-72
2022/02/18 04:09:21;;;;;;;15.37;3.93;;;;;;;;;;4895332;29;20224;-73
2022/02/18 04:11:54;;;;;;;12.47;3.90;;;;;;;;;;4901112;29;20220;-72
2022/02/18 04:14:25;;;;;;;16.33;4.63;;;;;;;;;;4904951;29;20252;-72
2022/02/18 04:17:01;;;;;;;12.97;4.40;;;;;;;;;;4926625;29;20699;-72
2022/02/18 04:19:32;;;;;;;11.73;4.17;;;;;;;;;;4897884;29;20594;-73
2022/02/18 04:22:07;;;;;;;12.50;4.17;;;;;;;;;;4901028;29;20309;-76
2022/02/18 04:24:39;;;;;;;9.60;4.27;;;;;;;;;;4948559;28;20712;-72
2022/02/18 04:27:05;;;;;;;12.93;4.13;;;;;;;;;;4914241;29;20312;-72
2022/02/18 04:29:33;;;;;;;15.30;5.00;;;;;;;;;;4889742;29;20593;-72
2022/02/18 04:32:02;;;;;;;11.93;5.53;;;;;;;;;;4913077;29;20261;-72
2022/02/18 04:34:30;;;;;;;12.27;4.70;;;;;;;;;;4912778;29;20291;-72
2022/02/18 04:36:58;;;;;;;11.10;4.70;;;;;;;;;;4909126;29;20232;-72
2022/02/18 04:39:32;;;;;;;14.80;5.10;;;;;;;;;;4933024;28;20231;-73
2022/02/18 04:41:58;;;;;;;12.33;4.70;;;;;;;;;;4907812;29;20311;-74
2022/02/18 04:44:26;;;;;;;12.53;5.00;;;;;;;;;;4900273;29;20224;-74
2022/02/18 04:46:56;;;;;;;15.90;5.00;;;;;;;;;;4926680;29;20773;-72
2022/02/18 04:49:24;;;;;;;11.47;4.47;;;;;;;;;;4910688;29;20250;-73
2022/02/18 04:51:50;;;;;;;13.53;4.83;;;;;;;;;;4940204;28;20223;-74
2022/02/18 04:54:16;;;;;;;15.17;5.00;;;;;;;;;;4922800;29;20228;-73
2022/02/18 04:56:43;;;;;;;18.87;4.77;;;;;;;;;;4915976;29;20229;-74
2022/02/18 04:59:19;;;;;;;13.50;5.40;;;;;;;;;;4899441;29;20236;-72
2022/02/18 05:01:47;;;;;;;13.90;4.70;;;;;;;;;;4918077;29;20895;-73
2022/02/18 05:04:14;;;;;;;17.90;5.10;;;;;;;;;;4950322;28;20236;-72
2022/02/18 05:06:41;;;;;;;16.50;5.10;;;;;;;;;;4898842;29;20238;-73
2022/02/18 05:09:06;;;;;;;19.63;9.27;;;;;;;;;;4902289;29;20224;-72
2022/02/18 05:11:37;;;;;;;16.73;6.53;;;;;;;;;;4906690;29;20280;-72
2022/02/18 05:14:05;;;;;;;12.27;5.10;;;;;;;;;;4938117;28;20231;-72
2022/02/18 05:16:30;;;;;;;13.00;5.27;;;;;;;;;;4933782;29;20326;-72
2022/02/18 05:18:58;;;;;;;14.80;6.20;;;;;;;;;;4901063;29;20243;-73
2022/02/18 05:21:24;;;;;;;16.03;5.90;;;;;;;;;;4933612;29;20301;-72
2022/02/18 05:23:57;;;;;;;27.10;15.27;;;;;;;;;;4920345;29;20227;-72
2022/02/18 05:26:26;;;;;;;20.83;9.23;;;;;;;;;;4921956;28;20248;-72
2022/02/18 05:28:51;;;;;;;18.63;9.30;;;;;;;;;;4935199;29;20500;-72
2022/02/18 05:31:19;;;;;;;16.10;6.07;;;;;;;;;;4918255;28;20231;-73
2022/02/18 05:33:44;;;;;;;23.23;11.87;;;;;;;;;;4900363;29;20220;-74
2022/02/18 05:36:17;;;;;;;22.67;11.67;;;;;;;;;;4908616;29;20240;-72
2022/02/18 05:38:43;;;;;;;14.53;6.30;;;;;;;;;;4884462;29;20658;-72
2022/02/18 05:41:14;;;;;;;19.33;6.20;;;;;;;;;;4884533;29;20256;-72
2022/02/18 05:43:39;;;;;;;14.77;5.73;;;;;;;;;;4918086;29;20656;-73
2022/02/18 05:46:07;;;;;;;15.63;5.10;;;;;;;;;;4919251;28;20243;-73
2022/02/18 05:48:35;;;;;;;13.27;5.00;;;;;;;;;;4915586;29;20236;-72
2022/02/18 05:51:01;;;;;;;14.57;5.43;;;;;;;;;;4915234;29;20431;-73
2022/02/18 05:53:34;;;;;;;10.23;4.63;;;;;;;;;;4916761;28;20239;-73
2022/02/18 05:56:04;;;;;;;14.73;4.97;;;;;;;;;;4891921;29;20238;-73
2022/02/18 05:58:31;;;;;;;17.90;5.20;;;;;;;;;;4930672;29;20227;-72
2022/02/18 06:00:56;;;;;;;12.87;5.00;;;;;;;;;;4916637;29;20248;-72
2022/02/18 06:03:24;;;;;;;15.83;4.63;;;;;;;;;;4918118;28;20740;-73
2022/02/18 06:05:50;;;;;;;18.30;5.17;;;;;;;;;;4935726;28;20227;-72
2022/02/18 06:08:16;;;;;;;14.00;5.10;;;;;;;;;;4891989;29;20230;-72
2022/02/18 06:10:41;;;;;;;14.47;5.17;;;;;;;;;;4914837;29;20232;-72
2022/02/18 06:13:07;;;;;;;14.57;5.03;;;;;;;;;;4908770;28;20705;-71
2022/02/18 06:15:33;;;;;;;15.57;4.57;;;;;;;;;;4911972;29;20615;-71
2022/02/18 06:18:04;;;;;;;15.17;4.43;;;;;;;;;;4937818;28;20223;-71
2022/02/18 06:20:29;;;;;;;19.07;4.67;;;;;;;;;;4930555;28;20224;-71
2022/02/18 06:23:00;;;;;;;15.73;4.60;;;;;;;;;;4918137;29;20265;-72
2022/02/18 06:25:28;;;;;;;16.57;4.97;;;;;;;;;;4950402;28;20640;-74
2022/02/18 06:28:07;;;;;;;16.47;5.03;;;;;;;;;;4902332;29;20219;-73
2022/02/18 06:30:37;;;;;;;13.30;4.30;;;;;;;;;;4948570;28;20250;-72
2022/02/18 06:33:06;;;;;;;15.33;4.70;;;;;;;;;;4910040;29;20220;-71
2022/02/18 06:35:34;;;;;;;17.93;4.60;;;;;;;;;;4901074;29;20250;-72
2022/02/18 06:38:02;;;;;;;15.13;4.60;;;;;;;;;;4922851;29;20223;-72
2022/02/18 06:40:30;;;;;;;16.47;4.60;;;;;;;;;;4916698;29;20315;-71
2022/02/18 06:42:58;;;;;;;15.73;4.43;;;;;;;;;;4918405;29;20370;-72
2022/02/18 06:45:24;;;;;;;17.33;4.50;;;;;;;;;;4912574;29;20795;-73
2022/02/18 06:47:52;;;;;;;12.97;4.57;;;;;;;;;;4929664;28;20310;-72
2022/02/18 06:50:17;;;;;;;12.30;5.37;;;;;;;;;;4931473;28;20708;-72
2022/02/18 06:52:44;;;;;;;21.13;8.63;;;;;;;;;;4912593;29;20216;-72
2022/02/18 06:55:10;;;;;;;14.30;4.80;;;;;;;;;;4896903;29;20319;-72
2022/02/18 06:57:42;;;;;;;10.27;4.27;;;;;;;;;;4898075;29;20318;-72
2022/02/18 07:00:10;;;;;;;43.43;18.17;;;;;;;;;;4915675;28;20338;-72
2022/02/18 07:02:38;;;;;;;52.03;20.20;;;;;;;;;;4948858;28;20230;-71
2022/02/18 07:05:08;;;;;;;21.70;9.87;;;;;;;;;;4898855;29;20228;-72
2022/02/18 07:07:37;;;;;;;23.50;11.00;;;;;;;;;;4916090;29;20279;-75
2022/02/18 07:10:03;;;;;;;16.00;6.00;;;;;;;;;;4930729;28;20680;-72
2022/02/18 07:12:29;;;;;;;12.80;4.37;;;;;;;;;;4901716;29;20234;-72
2022/02/18 07:14:55;;;;;;;12.27;4.50;;;;;;;;;;4920803;29;20229;-72
2022/02/18 07:17:26;;;;;;;14.77;4.00;;;;;;;;;;4930523;29;20279;-73
2022/02/18 07:19:54;;;;;;;11.23;3.70;;;;;;;;;;4931444;29;20224;-72
2022/02/18 07:22:19;;;;;;;14.23;4.23;;;;;;;;;;4882106;29;20228;-71
2022/02/18 07:24:48;;;;;;;12.67;4.17;;;;;;;;;;4894800;29;20242;-71
2022/02/18 07:27:18;;;;;;;13.07;4.00;;;;;;;;;;4940005;28;20220;-71
2022/02/18 07:29:44;;;;;;;12.63;4.07;;;;;;;;;;4939410;28;20257;-72
2022/02/18 07:32:15;;;;;;;13.57;3.87;;;;;;;;;;4920897;29;20250;-71
2022/02/18 07:34:40;;;;;;;14.77;3.93;;;;;;;;;;4923483;29;20233;-71
2022/02/18 07:37:08;;;;;;;12.60;3.90;;;;;;;;;;4912797;29;20232;-72
2022/02/18 07:39:34;;;;;;;12.93;4.33;;;;;;;;;;4895701;29;20687;-72
2022/02/18 07:41:59;;;;;;;15.23;4.50;;;;;;;;;;4898227;29;20365;-72
2022/02/18 07:44:30;;;;;;;13.20;4.40;;;;;;;;;;4917160;29;20286;-73
2022/02/18 07:46:56;;;;;;;15.57;4.57;;;;;;;;;;4928906;29;20235;-71
2022/02/18 07:49:25;;;;;;;14.13;4.37;;;;;;;;;;4914784;29;20686;-71
2022/02/18 07:51:50;;;;;;;12.67;4.30;;;;;;;;;;4915128;29;20232;-72
2022/02/18 07:54:16;;;;;;;17.07;4.20;;;;;;;;;;4915211;29;20224;-72
2022/02/18 07:56:44;;;;;;;16.87;5.03;;;;;;;;;;4904946;29;20229;-72
2022/02/18 07:59:12;;;;;;;11.70;4.93;;;;;;;;;;4912924;29;20234;-71
2022/02/18 08:01:44;;;;;;;15.07;5.40;;;;;;;;;;4914239;29;20228;-72
2022/02/18 08:04:10;;;;;;;16.33;5.03;;;;;;;;;;4931975;28;20662;-71
2022/02/18 08:06:38;;;;;;;20.00;5.93;;;;;;;;;;4917590;29;20219;-73
2022/02/18 08:09:06;;;;;;;17.17;5.67;;;;;;;;;;4926701;29;20258;-71
2022/02/18 08:11:32;;;;;;;15.03;6.50;;;;;;;;;;4929394;28;20219;-71
2022/02/18 08:13:59;;;;;;;16.70;6.53;;;;;;;;;;4914564;29;20302;-71
2022/02/18 08:16:26;;;;;;;14.60;7.20;;;;;;;;;;4905518;29;20232;-74
2022/02/18 08:18:54;;;;;;;43.13;21.40;;;;;;;;;;4912334;29;20235;-73
2022/02/18 08:21:19;;;;;;;22.87;11.87;;;;;;;;;;4913473;29;20271;-74
2022/02/18 08:23:46;;;;;;;19.10;7.60;;;;;;;;;;4917195;29;20315;-72
2022/02/18 08:26:12;;;;;;;18.97;7.50;;;;;;;;;;4922741;29;20223;-72
2022/02/18 08:28:40;;;;;;;18.10;7.63;;;;;;;;;;4917765;29;20228;-73
2022/02/18 08:31:05;;;;;;;17.87;7.33;;;;;;;;;;4888134;29;20300;-71
2022/02/18 08:33:39;;;;;;;16.30;7.20;;;;;;;;;;4898392;29;20775;-71
2022/02/18 08:36:06;;;;;;;24.80;8.90;;;;;;;;;;4893514;29;20235;-72
2022/02/18 08:38:34;;;;;;;22.87;8.00;;;;;;;;;;4916073;29;20228;-72
2022/02/18 08:41:04;;;;;;;20.60;7.90;;;;;;;;;;4928663;29;20455;-72
2022/02/18 08:43:31;;;;;;;18.90;8.93;;;;;;;;;;4930766;29;20710;-74
2022/02/18 08:45:59;;;;;;;19.63;8.37;;;;;;;;;;4918973;29;20258;-73
2022/02/18 08:48:29;;;;;;;20.77;8.10;;;;;;;;;;4934297;29;20227;-71
2022/02/18 08:50:57;;;;;;;21.03;9.07;;;;;;;;;;4925673;28;20224;-72
2022/02/18 08:53:28;;;;;;;19.17;8.77;;;;;;;;;;4915549;29;20319;-72
2022/02/18 08:55:54;;;;;;;21.40;9.13;;;;;;;;;;4927867;28;20240;-72
2022/02/18 08:58:22;;;;;;;21.57;9.90;;;;;;;;;;4936386;28;20318;-71
2022/02/18 09:00:50;;;;;;;18.17;8.43;;;;;;;;;;4896628;29;20228;-71
2022/02/18 09:03:18;;;;;;;17.07;8.27;;;;;;;;;;4916973;29;20283;-72
2022/02/18 09:05:44;;;;;;;20.00;8.87;;;;;;;;;;4923127;29;20251;-72
2022/02/18 09:08:13;;;;;;;19.80;9.20;;;;;;;;;;4934560;28;20302;-72
2022/02/18 09:10:41;;;;;;;23.17;9.23;;;;;;;;;;4914429;29;20232;-72
2022/02/18 09:13:07;;;;;;;16.93;9.20;;;;;;;;;;4915290;29;20690;-72
2022/02/18 09:15:35;;;;;;;19.30;9.47;;;;;;;;;;4888495;29;20311;-71
2022/02/18 09:18:12;;;;;;;17.40;9.70;;;;;;;;;;4926134;29;20217;-72
2022/02/18 09:20:44;;;;;;;17.43;8.83;;;;;;;;;;4926185;29;20227;-71
2022/02/18 09:23:10;;;;;;;17.87;9.53;;;;;;;;;;4879506;29;20695;-73
2022/02/18 09:25:36;;;;;;;22.67;9.67;;;;;;;;;;4896689;29;20235;-71
2022/02/18 09:28:02;;;;;;;22.03;9.77;;;;;;;;;;4910281;29;20236;-72
2022/02/18 09:30:30;;;;;;;21.00;10.07;;;;;;;;;;4919689;29;20386;-73
2022/02/18 09:32:57;;;;;;;22.87;10.17;;;;;;;;;;4912629;29;20286;-71
2022/02/18 09:35:24;;;;;;;22.57;10.30;;;;;;;;;;4928454;29;20248;-72
2022/02/18 09:37:51;;;;;;;20.73;10.40;;;;;;;;;;4903421;29;20233;-72
2022/02/18 09:40:21;;;;;;;21.10;10.37;;;;;;;;;;4915329;29;20224;-71
2022/02/18 09:42:47;;;;;;;25.07;10.33;;;;;;;;;;4908544;29;20236;-71
2022/02/18 09:45:18;;;;;;;16.80;9.97;;;;;;;;;;4914379;29;20231;-72
2022/02/18 09:47:44;;;;;;;24.03;11.27;;;;;;;;;;4926856;29;20303;-73
2022/02/18 09:50:10;;;;;;;17.70;11.07;;;;;;;;;;4895855;29;20619;-73
2022/02/18 09:52:36;;;;;;;19.60;10.87;;;;;;;;;;4930187;28;20270;-72
2022/02/18 09:55:01;;;;;;;24.03;11.50;;;;;;;;;;4915097;29;20315;-72
2022/02/18 09:57:29;;;;;;;22.93;11.37;;;;;;;;;;4892309;29;20232;-73
2022/02/18 09:59:55;;;;;;;19.30;11.03;;;;;;;;;;4899773;29;20390;-72
2022/02/18 10:02:23;;;;;;;18.67;11.07;;;;;;;;;;4898939;29;20299;-73
2022/02/18 10:04:51;;;;;;;17.10;10.60;;;;;;;;;;4929961;29;20232;-72
2022/02/18 10:07:20;;;;;;;19.43;10.77;;;;;;;;;;4882593;29;20224;-73
2022/02/18 10:09:49;;;;;;;21.60;10.80;;;;;;;;;;4910763;29;20311;-72
2022/02/18 10:12:18;;;;;;;19.40;10.97;;;;;;;;;;4914170;29;20318;-72
2022/02/18 10:15:00;;;;;;;19.53;9.97;;;;;;;;;;4885949;29;20232;-73
2022/02/18 10:17:43;;;;;;;16.73;10.43;;;;;;;;;;4900030;29;20254;-73
2022/02/18 10:20:17;;;;;;;18.47;10.87;;;;;;;;;;4892821;29;20356;-71
2022/02/18 10:22:58;;;;;;;18.27;10.53;;;;;;;;;;4924417;29;20304;-72
2022/02/18 10:25:29;;;;;;;18.97;9.87;;;;;;;;;;4932530;29;20256;-72
2022/02/18 10:27:56;;;;;;;15.37;9.00;;;;;;;;;;4924017;29;20250;-72
2022/02/18 10:30:28;;;;;;;15.97;8.93;;;;;;;;;;4924034;28;20285;-73
2022/02/18 10:33:12;;;;;;;13.83;8.77;;;;;;;;;;4938107;28;20228;-72
2022/02/18 10:35:40;;;;;;;16.33;8.40;;;;;;;;;;4916672;29;20247;-73
2022/02/18 10:38:06;;;;;;;21.60;9.03;;;;;;;;;;4943562;28;20223;-72
2022/02/18 10:40:36;;;;;;;13.47;7.20;;;;;;;;;;4935641;28;20247;-72
2022/02/18 10:43:11;;;;;;;15.57;7.33;;;;;;;;;;4921285;29;20736;-72
2022/02/18 10:45:59;;;;;;;14.23;6.50;;;;;;;;;;4896722;29;20291;-72
2022/02/18 10:48:45;;;;;;;12.53;5.93;;;;;;;;;;4885724;29;20717;-73
2022/02/18 10:51:14;;;;;;;12.53;5.87;;;;;;;;;;4914100;29;20322;-72
2022/02/18 10:53:43;;;;;;;12.33;5.47;;;;;;;;;;4886475;29;20230;-71
2022/02/18 10:56:12;;;;;;;12.70;5.33;;;;;;;;;;4913407;29;20228;-71
2022/02/18 10:58:39;;;;;;;13.93;5.13;;;;;;;;;;4903291;29;20259;-73
2022/02/18 11:01:08;;;;;;;14.60;5.30;;;;;;;;;;4898794;29;20256;-72
2022/02/18 11:03:34;;;;;;;12.63;4.90;;;;;;;;;;4927833;29;20818;-73
2022/02/18 11:06:25;;;;;;;11.37;4.37;;;;;;;;;;4901326;29;20234;-70
2022/02/18 11:08:54;;;;;;;13.37;4.83;;;;;;;;;;4918064;29;20232;-71
2022/02/18 11:11:22;;;;;;;14.63;4.37;;;;;;;;;;4914049;29;20288;-70
2022/02/18 11:13:51;;;;;;;14.10;4.43;;;;;;;;;;4928286;29;20286;-71
2022/02/18 11:16:20;;;;;;;14.10;4.20;;;;;;;;;;4917536;28;20247;-73
2022/02/18 11:18:48;;;;;;;14.27;4.90;;;;;;;;;;4911722;29;20556;-71
2022/02/18 11:21:18;;;;;;;12.57;4.30;;;;;;;;;;4913471;29;20224;-71
2022/02/18 11:23:48;;;;;;;13.40;4.33;;;;;;;;;;4927116;29;20223;-73
2022/02/18 11:26:21;;;;;;;11.27;3.93;;;;;;;;;;4907175;29;20220;-73
2022/02/18 11:28:49;;;;;;;15.17;3.80;;;;;;;;;;4897124;29;20220;-73
2022/02/18 11:31:35;;;;;;;16.80;4.00;;;;;;;;;;4906688;29;20887;-72
2022/02/18 11:34:31;;;;;;;9.00;3.67;;;;;;;;;;4910967;29;20314;-74
2022/02/18 11:37:30;;;;;;;11.27;3.50;;;;;;;;;;4928136;28;20271;-72
2022/02/18 11:40:21;;;;;;;10.03;3.37;;;;;;;;;;4911716;29;20228;-72
2022/02/18 11:43:10;;;;;;;10.67;3.37;;;;;;;;;;4910837;29;20224;-72
2022/02/18 11:45:39;;;;;;;9.13;3.17;;;;;;;;;;4913112;29;20240;-72
2022/02/18 11:48:07;;;;;;;12.63;3.43;;;;;;;;;;4904777;29;20271;-73
2022/02/18 11:50:35;;;;;;;12.03;3.17;;;;;;;;;;4896797;29;20232;-73
2022/02/18 11:53:00;;;;;;;13.77;3.30;;;;;;;;;;4904584;29;20225;-71
2022/02/18 11:55:35;;;;;;;12.80;3.67;;;;;;;;;;4880914;29;20231;-72
2022/02/18 11:58:03;;;;;;;10.10;3.23;;;;;;;;;;4931116;28;20235;-72
2022/02/18 12:00:38;;;;;;;9.43;3.20;;;;;;;;;;4914569;29;20234;-72
2022/02/18 12:03:20;;;;;;;14.63;3.50;;;;;;;;;;4912779;29;20224;-73
2022/02/18 12:06:04;;;;;;;8.60;2.80;;;;;;;;;;4887503;29;20707;-74
2022/02/18 12:08:30;;;;;;;13.77;3.20;;;;;;;;;;4893892;29;20243;-73
2022/02/18 12:10:56;;;;;;;16.50;3.80;;;;;;;;;;4882097;29;20289;-74
2022/02/18 12:13:24;;;;;;;10.43;2.93;;;;;;;;;;4890535;29;21525;-75
2022/02/18 12:15:52;;;;;;;12.57;3.30;;;;;;;;;;4913259;29;20306;-75
2022/02/18 12:18:24;;;;;;;9.83;3.00;;;;;;;;;;4898613;29;20228;-73
2022/02/18 12:21:09;;;;;;;11.93;3.17;;;;;;;;;;4897385;29;20230;-73
2022/02/18 12:23:42;;;;;;;10.60;2.87;;;;;;;;;;4870841;29;20223;-73
2022/02/18 12:26:20;;;;;;;13.73;3.20;;;;;;;;;;4915876;29;20710;-72
2022/02/18 12:28:48;;;;;;;13.20;2.83;;;;;;;;;;4916537;29;20224;-72
2022/02/18 12:31:16;;;;;;;9.83;2.77;;;;;;;;;;4906524;29;20228;-74
2022/02/18 12:33:42;;;;;;;11.53;2.97;;;;;;;;;;4885117;29;20224;-72
2022/02/18 12:36:09;;;;;;;9.20;3.23;;;;;;;;;;4916997;28;20238;-73
2022/02/18 12:38:47;;;;;;;9.83;2.90;;;;;;;;;;4924147;29;20228;-73
2022/02/18 12:41:20;;;;;;;8.80;3.30;;;;;;;;;;4885107;28;20793;-74
2022/02/18 12:43:53;;;;;;;50.43;20.13;;;;;;;;;;4932036;29;20231;-73
2022/02/18 12:46:21;;;;;;;51.20;23.27;;;;;;;;;;4880936;29;20600;-73
2022/02/18 12:48:50;;;;;;;48.73;22.30;;;;;;;;;;4900637;29;20697;-78
2022/02/18 12:51:23;;;;;;;16.67;7.57;;;;;;;;;;4884246;29;20232;-74
2022/02/18 12:53:52;;;;;;;14.23;3.43;;;;;;;;;;4912515;29;20307;-73
2022/02/18 12:56:22;;;;;;;13.50;3.37;;;;;;;;;;4913417;29;20729;-74
2022/02/18 12:58:53;;;;;;;11.23;3.47;;;;;;;;;;4929763;28;20879;-73
2022/02/18 13:01:19;;;;;;;13.23;3.90;;;;;;;;;;4924559;29;20316;-75
2022/02/18 13:03:46;;;;;;;12.13;3.63;;;;;;;;;;4918664;29;20722;-73
2022/02/18 13:06:14;;;;;;;12.57;3.13;;;;;;;;;;4946253;28;20358;-73
2022/02/18 13:08:42;;;;;;;10.47;3.27;;;;;;;;;;4900058;29;20725;-74
2022/02/18 13:11:12;;;;;;;11.43;3.10;;;;;;;;;;4932859;29;20212;-74
2022/02/18 13:13:38;;;;;;;9.33;2.90;;;;;;;;;;4899637;29;20304;-74
2022/02/18 13:16:04;;;;;;;9.10;2.90;;;;;;;;;;4914819;29;20811;-74
2022/02/18 13:18:32;;;;;;;13.27;3.53;;;;;;;;;;4912033;29;20231;-74
2022/02/18 13:20:58;;;;;;;11.53;3.20;;;;;;;;;;4898399;29;20232;-74
2022/02/18 13:23:26;;;;;;;11.60;3.37;;;;;;;;;;4896301;29;20757;-73
2022/02/18 13:26:16;;;;;;;8.67;2.87;;;;;;;;;;4927434;29;20228;-73
2022/02/18 13:28:49;;;;;;;9.40;2.90;;;;;;;;;;4886159;29;20598;-74
2022/02/18 13:31:15;;;;;;;8.40;2.70;;;;;;;;;;4921655;29;20224;-74
2022/02/18 13:33:42;;;;;;;7.03;2.67;;;;;;;;;;4903887;29;20836;-75
2022/02/18 13:36:17;;;;;;;6.57;2.60;;;;;;;;;;4935567;28;20225;-76
2022/02/18 13:38:55;;;;;;;11.53;2.73;;;;;;;;;;4915264;29;20722;-73
2022/02/18 13:41:24;;;;;;;6.37;2.70;;;;;;;;;;4904333;29;20224;-74
2022/02/18 13:43:50;;;;;;;6.60;2.47;;;;;;;;;;4933606;29;20303;-76
2022/02/18 13:46:37;;;;;;;7.77;2.40;;;;;;;;;;4915669;28;20291;-73
2022/02/18 13:49:16;;;;;;;6.97;2.30;;;;;;;;;;4918542;29;20235;-73
2022/02/18 13:51:48;;;;;;;9.17;2.20;;;;;;;;;;4902157;29;20266;-74
2022/02/18 13:54:14;;;;;;;6.40;2.50;;;;;;;;;;4886389;29;20589;-76
2022/02/18 13:56:40;;;;;;;8.50;2.40;;;;;;;;;;4917603;29;20269;-77
2022/02/18 13:59:29;;;;;;;7.30;2.30;;;;;;;;;;4899579;29;20720;-76
2022/02/18 14:02:16;;;;;;;6.20;2.20;;;;;;;;;;4905132;29;20731;-75
2022/02/18 14:04:46;;;;;;;5.07;2.00;;;;;;;;;;4919752;29;20233;-79
2022/02/18 14:07:23;;;;;;;5.70;2.33;;;;;;;;;;4928834;29;20240;-73
2022/02/18 14:09:57;;;;;;;8.40;1.70;;;;;;;;;;4887659;29;20666;-74
2022/02/18 14:12:58;;;;;;;5.00;1.77;;;;;;;;;;4868645;29;20246;-73
2022/02/18 14:15:27;;;;;;;3.70;1.90;;;;;;;;;;4871336;29;20230;-74
2022/02/18 14:18:07;;;;;;;4.27;1.80;;;;;;;;;;4884887;29;20243;-75
2022/02/18 14:20:33;;;;;;;6.03;2.10;;;;;;;;;;4911345;29;20235;-76
2022/02/18 14:23:01;;;;;;;4.00;1.80;;;;;;;;;;4930898;28;20220;-74
2022/02/18 14:25:38;;;;;;;2.40;1.43;;;;;;;;;;4891353;29;20228;-72
2022/02/18 14:28:15;;;;;;;6.17;1.80;;;;;;;;;;4899296;29;20230;-74
2022/02/18 14:30:42;;;;;;;3.10;1.63;;;;;;;;;;4907174;29;20354;-75
2022/02/18 14:33:21;;;;;;;4.47;1.70;;;;;;;;;;4901848;29;20235;-73
2022/02/18 14:35:46;;;;;;;3.23;1.43;;;;;;;;;;4909367;29;20306;-74
2022/02/18 14:38:15;;;;;;;3.00;1.57;;;;;;;;;;4904108;28;20371;-74
2022/02/18 14:40:46;;;;;;;3.47;1.57;;;;;;;;;;4916710;29;20291;-74
2022/02/18 14:43:11;;;;;;;3.93;1.50;;;;;;;;;;4908177;29;20224;-75
2022/02/18 14:45:37;;;;;;;3.60;1.27;;;;;;;;;;4911631;29;20363;-74
2022/02/18 14:48:04;;;;;;;4.40;1.50;;;;;;;;;;4927071;28;20389;-73
2022/02/18 14:50:31;;;;;;;3.33;1.20;;;;;;;;;;4898822;29;20772;-74